Time;durP1;ratioP1;P1;durP2;ratioP2;P2;SDS_P1;SDS_P2;PMS_P1;PMS_P2;Temp;Humidity;BMP_temperature;BMP_pressure;BME280_temperature;BME280_humidity;BME280_pressure;Samples;Min_cycle;Max_cycle;Signal;HPM_P1;HPM_P2
2023/09/03 00:00:32;;;;;;;8.52;5.10;;;;;;;;;;5113770;28;20139;-64
2023/09/03 00:02:59;;;;;;;6.95;5.15;;;;;;;;;;5112390;28;20039;-63
2023/09/03 00:05:27;;;;;;;6.47;4.80;;;;;;;;;;5112411;28;20463;-63
2023/09/03 00:07:54;;;;;;;6.18;4.60;;;;;;;;;;5094981;28;20063;-64
2023/09/03 00:10:21;;;;;;;6.18;4.90;;;;;;;;;;5113077;28;20436;-63
2023/09/03 00:12:48;;;;;;;6.90;5.13;;;;;;;;;;5112950;28;20054;-64
2023/09/03 00:15:17;;;;;;;7.38;5.55;;;;;;;;;;5110347;28;20059;-64
2023/09/03 00:17:45;;;;;;;7.70;5.20;;;;;;;;;;5095167;28;20047;-63
2023/09/03 00:20:13;;;;;;;8.55;5.45;;;;;;;;;;5112532;28;20506;-63
2023/09/03 00:22:41;;;;;;;7.38;5.65;;;;;;;;;;5093629;28;20102;-63
2023/09/03 00:25:09;;;;;;;7.82;5.88;;;;;;;;;;5107370;28;20472;-63
2023/09/03 00:27:36;;;;;;;8.13;5.20;;;;;;;;;;5108199;28;20039;-64
2023/09/03 00:30:04;;;;;;;6.85;5.63;;;;;;;;;;5113298;28;20067;-64
2023/09/03 00:32:32;;;;;;;7.18;5.25;;;;;;;;;;5110347;28;20055;-63
2023/09/03 00:34:59;;;;;;;6.88;5.10;;;;;;;;;;5111449;27;20056;-64
2023/09/03 00:37:27;;;;;;;6.72;5.13;;;;;;;;;;5112115;28;20040;-63
2023/09/03 00:39:54;;;;;;;7.40;5.43;;;;;;;;;;5111224;28;20502;-64
2023/09/03 00:42:21;;;;;;;6.30;5.03;;;;;;;;;;5111619;28;20047;-63
2023/09/03 00:44:49;;;;;;;6.82;5.07;;;;;;;;;;5112394;28;20043;-63
2023/09/03 00:47:18;;;;;;;6.60;5.15;;;;;;;;;;5111265;28;20085;-64
2023/09/03 00:49:47;;;;;;;8.82;5.32;;;;;;;;;;5112567;28;20059;-63
2023/09/03 00:52:18;;;;;;;6.20;4.55;;;;;;;;;;5111522;27;20051;-63
2023/09/03 00:54:45;;;;;;;7.80;4.93;;;;;;;;;;5111556;28;20435;-63
2023/09/03 00:57:12;;;;;;;7.18;5.10;;;;;;;;;;5110226;28;20056;-63
2023/09/03 00:59:41;;;;;;;5.43;4.65;;;;;;;;;;5110728;28;20127;-63
2023/09/03 01:02:08;;;;;;;5.95;4.60;;;;;;;;;;5108510;28;20056;-63
2023/09/03 01:04:35;;;;;;;6.80;4.97;;;;;;;;;;5111620;28;20070;-63
2023/09/03 01:07:04;;;;;;;7.78;5.25;;;;;;;;;;5109947;28;20047;-64
2023/09/03 01:09:31;;;;;;;7.18;5.25;;;;;;;;;;5111963;28;20513;-64
2023/09/03 01:12:03;;;;;;;7.78;5.28;;;;;;;;;;5112038;28;20387;-63
2023/09/03 01:14:34;;;;;;;8.55;5.93;;;;;;;;;;5111142;28;20047;-63
2023/09/03 01:17:04;;;;;;;7.82;5.88;;;;;;;;;;5112195;28;20483;-63
2023/09/03 01:19:42;;;;;;;10.35;5.75;;;;;;;;;;5110546;28;20047;-63
2023/09/03 01:22:17;;;;;;;8.55;5.70;;;;;;;;;;5111837;28;20498;-63
2023/09/03 01:24:53;;;;;;;8.30;5.68;;;;;;;;;;5091663;28;20474;-63
2023/09/03 01:27:24;;;;;;;8.00;5.60;;;;;;;;;;5110891;28;20048;-63
2023/09/03 01:29:53;;;;;;;8.93;6.03;;;;;;;;;;5111263;28;20055;-63
2023/09/03 01:32:22;;;;;;;8.07;6.20;;;;;;;;;;5111417;28;20402;-63
2023/09/03 01:34:49;;;;;;;7.32;5.72;;;;;;;;;;5114911;27;20062;-63
2023/09/03 01:37:17;;;;;;;7.82;5.45;;;;;;;;;;5111656;28;20394;-63
2023/09/03 01:39:44;;;;;;;8.60;5.50;;;;;;;;;;5111572;28;20043;-63
2023/09/03 01:42:11;;;;;;;9.05;6.25;;;;;;;;;;5111155;28;20052;-63
2023/09/03 01:44:39;;;;;;;8.18;6.40;;;;;;;;;;5105605;28;20044;-63
2023/09/03 01:47:11;;;;;;;10.02;6.57;;;;;;;;;;5091954;28;20084;-63
2023/09/03 01:49:44;;;;;;;9.03;6.43;;;;;;;;;;5104254;28;20062;-63
2023/09/03 01:52:19;;;;;;;8.85;6.57;;;;;;;;;;5092897;28;20313;-63
2023/09/03 01:54:48;;;;;;;8.13;5.93;;;;;;;;;;5110543;28;20039;-64
2023/09/03 01:57:18;;;;;;;8.85;6.05;;;;;;;;;;5110899;28;20059;-63
2023/09/03 01:59:46;;;;;;;7.90;5.80;;;;;;;;;;5105244;28;20052;-63
2023/09/03 02:02:16;;;;;;;8.20;6.22;;;;;;;;;;5109437;28;20047;-63
2023/09/03 02:04:43;;;;;;;10.10;6.07;;;;;;;;;;5109753;28;20059;-63
2023/09/03 02:07:10;;;;;;;8.48;5.78;;;;;;;;;;5110581;28;20051;-63
2023/09/03 02:09:37;;;;;;;8.68;6.07;;;;;;;;;;5110434;28;20056;-63
2023/09/03 02:12:06;;;;;;;8.45;5.93;;;;;;;;;;5110909;28;20047;-63
2023/09/03 02:14:34;;;;;;;8.52;5.57;;;;;;;;;;5109906;28;20047;-63
2023/09/03 02:17:01;;;;;;;9.60;5.57;;;;;;;;;;5110888;28;20051;-63
2023/09/03 02:19:29;;;;;;;7.82;5.55;;;;;;;;;;5110308;28;20047;-64
2023/09/03 02:21:57;;;;;;;9.43;5.78;;;;;;;;;;5109288;28;20055;-63
2023/09/03 02:24:24;;;;;;;8.45;6.15;;;;;;;;;;5091812;28;20439;-63
2023/09/03 02:26:51;;;;;;;9.05;5.57;;;;;;;;;;5111054;28;20047;-63
2023/09/03 02:29:18;;;;;;;9.38;6.07;;;;;;;;;;5110003;28;20056;-63
2023/09/03 02:31:46;;;;;;;9.68;6.22;;;;;;;;;;5110815;28;20043;-63
2023/09/03 02:34:14;;;;;;;8.02;5.80;;;;;;;;;;5110019;28;20058;-63
2023/09/03 02:36:43;;;;;;;8.35;5.70;;;;;;;;;;5113645;28;20062;-63
2023/09/03 02:39:10;;;;;;;7.80;5.32;;;;;;;;;;5110749;28;20521;-63
2023/09/03 02:41:38;;;;;;;9.88;5.40;;;;;;;;;;5110085;28;20047;-63
2023/09/03 02:44:07;;;;;;;6.88;5.45;;;;;;;;;;5110562;28;20066;-64
2023/09/03 02:46:34;;;;;;;5.82;4.72;;;;;;;;;;5109859;28;20143;-64
2023/09/03 02:49:01;;;;;;;6.63;5.35;;;;;;;;;;5107378;28;20383;-64
2023/09/03 02:51:29;;;;;;;8.13;5.28;;;;;;;;;;5104197;28;20468;-64
2023/09/03 02:53:57;;;;;;;9.43;6.07;;;;;;;;;;5090715;28;20059;-63
2023/09/03 02:56:25;;;;;;;8.35;6.10;;;;;;;;;;5109675;28;20052;-63
2023/09/03 02:58:52;;;;;;;7.70;5.50;;;;;;;;;;5110384;28;20051;-63
2023/09/03 03:01:20;;;;;;;8.43;6.00;;;;;;;;;;5107692;28;20047;-63
2023/09/03 03:03:48;;;;;;;9.48;6.35;;;;;;;;;;5110829;28;20399;-63
2023/09/03 03:06:15;;;;;;;7.35;5.68;;;;;;;;;;5109054;28;20144;-63
2023/09/03 03:08:43;;;;;;;7.30;5.68;;;;;;;;;;5109130;28;20048;-63
2023/09/03 03:11:12;;;;;;;7.70;5.60;;;;;;;;;;5108166;28;20048;-63
2023/09/03 03:13:40;;;;;;;6.80;5.03;;;;;;;;;;5110502;28;20062;-63
2023/09/03 03:16:08;;;;;;;8.02;5.15;;;;;;;;;;5106868;28;20052;-63
2023/09/03 03:18:36;;;;;;;6.75;5.28;;;;;;;;;;5110053;28;20047;-63
2023/09/03 03:21:07;;;;;;;7.85;4.57;;;;;;;;;;5105600;28;20092;-63
2023/09/03 03:23:34;;;;;;;6.35;4.82;;;;;;;;;;5112916;28;20086;-63
2023/09/03 03:26:02;;;;;;;6.45;4.30;;;;;;;;;;5113708;28;20052;-63
2023/09/03 03:28:32;;;;;;;7.25;4.70;;;;;;;;;;5096233;28;20047;-63
2023/09/03 03:30:59;;;;;;;6.50;4.90;;;;;;;;;;5094810;28;20051;-63
2023/09/03 03:33:28;;;;;;;6.47;4.35;;;;;;;;;;5113115;28;20104;-64
2023/09/03 03:35:55;;;;;;;6.15;4.45;;;;;;;;;;5116414;27;20047;-63
2023/09/03 03:38:23;;;;;;;7.80;4.30;;;;;;;;;;5113248;28;20044;-63
2023/09/03 03:40:50;;;;;;;9.35;4.63;;;;;;;;;;5096444;28;20463;-64
2023/09/03 03:43:17;;;;;;;6.78;4.40;;;;;;;;;;5113256;28;20059;-63
2023/09/03 03:45:46;;;;;;;5.93;4.65;;;;;;;;;;5114046;28;20516;-64
2023/09/03 03:48:13;;;;;;;5.32;4.50;;;;;;;;;;5094326;28;20047;-63
2023/09/03 03:50:40;;;;;;;5.93;4.53;;;;;;;;;;5112478;28;20129;-63
2023/09/03 03:53:08;;;;;;;6.30;4.47;;;;;;;;;;5109958;28;20040;-63
2023/09/03 03:55:35;;;;;;;6.53;4.32;;;;;;;;;;5095410;28;20051;-63
2023/09/03 03:58:02;;;;;;;6.70;4.00;;;;;;;;;;5112839;28;20498;-63
2023/09/03 04:00:30;;;;;;;4.85;4.18;;;;;;;;;;5113424;28;20054;-63
2023/09/03 04:02:59;;;;;;;5.88;4.15;;;;;;;;;;5112095;28;20371;-63
2023/09/03 04:05:26;;;;;;;4.80;3.90;;;;;;;;;;5111019;28;20054;-63
2023/09/03 04:07:53;;;;;;;5.45;4.00;;;;;;;;;;5112658;28;20039;-63
2023/09/03 04:10:21;;;;;;;5.43;4.10;;;;;;;;;;5094889;28;20487;-63
2023/09/03 04:12:48;;;;;;;5.18;4.00;;;;;;;;;;5111428;28;20044;-64
2023/09/03 04:15:16;;;;;;;7.80;3.90;;;;;;;;;;5112809;28;20079;-63
2023/09/03 04:17:43;;;;;;;4.57;3.67;;;;;;;;;;5095450;28;20044;-63
2023/09/03 04:20:13;;;;;;;7.57;4.05;;;;;;;;;;5112282;28;20109;-63
2023/09/03 04:22:40;;;;;;;5.22;3.72;;;;;;;;;;5091076;28;20122;-63
2023/09/03 04:25:08;;;;;;;5.20;3.95;;;;;;;;;;5113331;28;20050;-63
2023/09/03 04:27:35;;;;;;;6.18;4.25;;;;;;;;;;5110465;28;20043;-63
2023/09/03 04:30:03;;;;;;;4.57;3.88;;;;;;;;;;5113153;28;20604;-63
2023/09/03 04:32:30;;;;;;;5.25;3.47;;;;;;;;;;5089975;28;20104;-63
2023/09/03 04:34:57;;;;;;;4.63;3.78;;;;;;;;;;5114349;27;20586;-63
2023/09/03 04:37:26;;;;;;;4.78;3.50;;;;;;;;;;5111774;28;20047;-63
2023/09/03 04:39:53;;;;;;;5.80;3.92;;;;;;;;;;5112011;28;20050;-63
2023/09/03 04:42:20;;;;;;;6.50;4.40;;;;;;;;;;5109854;28;20126;-63
2023/09/03 04:44:47;;;;;;;4.88;3.78;;;;;;;;;;5111731;28;20047;-63
2023/09/03 04:47:14;;;;;;;4.38;3.53;;;;;;;;;;5110674;28;20047;-63
2023/09/03 04:49:42;;;;;;;6.40;4.15;;;;;;;;;;5111132;28;20411;-63
2023/09/03 04:52:09;;;;;;;4.72;3.88;;;;;;;;;;5111745;28;20043;-63
2023/09/03 04:54:37;;;;;;;4.50;3.10;;;;;;;;;;5112054;28;20063;-63
2023/09/03 04:57:05;;;;;;;5.70;3.72;;;;;;;;;;5112116;28;20464;-63
2023/09/03 04:59:32;;;;;;;5.53;3.65;;;;;;;;;;5111380;28;20043;-63
2023/09/03 05:01:59;;;;;;;4.63;3.70;;;;;;;;;;5107439;28;20391;-63
2023/09/03 05:04:26;;;;;;;5.55;3.63;;;;;;;;;;5093637;28;20048;-63
2023/09/03 05:06:55;;;;;;;5.65;3.42;;;;;;;;;;5111880;28;20058;-64
2023/09/03 05:09:22;;;;;;;4.05;3.38;;;;;;;;;;5110691;28;20075;-63
2023/09/03 05:11:51;;;;;;;5.10;2.80;;;;;;;;;;5112468;28;20536;-63
2023/09/03 05:14:18;;;;;;;4.25;2.90;;;;;;;;;;5111376;28;20043;-63
2023/09/03 05:16:45;;;;;;;4.18;2.95;;;;;;;;;;5111968;28;20046;-63
2023/09/03 05:19:14;;;;;;;5.50;3.20;;;;;;;;;;5110428;28;20047;-63
2023/09/03 05:21:41;;;;;;;4.35;3.10;;;;;;;;;;5108334;28;20123;-63
2023/09/03 05:24:10;;;;;;;5.38;3.17;;;;;;;;;;5111732;28;20398;-63
2023/09/03 05:26:37;;;;;;;4.47;3.17;;;;;;;;;;5093962;28;20043;-63
2023/09/03 05:29:06;;;;;;;5.32;3.50;;;;;;;;;;5111250;28;20057;-63
2023/09/03 05:31:35;;;;;;;4.18;3.47;;;;;;;;;;5112024;28;20497;-63
2023/09/03 05:34:02;;;;;;;5.53;3.22;;;;;;;;;;5110919;28;20086;-63
2023/09/03 05:36:30;;;;;;;5.20;3.53;;;;;;;;;;5099816;28;20052;-63
2023/09/03 05:38:57;;;;;;;3.90;3.15;;;;;;;;;;5110517;28;20074;-63
2023/09/03 05:41:24;;;;;;;4.95;3.60;;;;;;;;;;5112181;28;20051;-63
2023/09/03 05:43:53;;;;;;;4.93;4.13;;;;;;;;;;5111356;28;20059;-63
2023/09/03 05:46:22;;;;;;;5.95;3.65;;;;;;;;;;5110255;28;20065;-63
2023/09/03 05:48:50;;;;;;;4.60;3.78;;;;;;;;;;5109007;28;20040;-63
2023/09/03 05:51:18;;;;;;;6.72;3.92;;;;;;;;;;5110401;28;20104;-63
2023/09/03 05:53:45;;;;;;;6.53;4.10;;;;;;;;;;5110978;28;20050;-63
2023/09/03 05:56:12;;;;;;;5.97;4.63;;;;;;;;;;5110107;28;20070;-63
2023/09/03 05:58:40;;;;;;;7.65;4.45;;;;;;;;;;5110875;28;20044;-63
2023/09/03 06:01:07;;;;;;;8.10;4.72;;;;;;;;;;5110210;28;20043;-63
2023/09/03 06:03:36;;;;;;;10.48;4.47;;;;;;;;;;5111721;28;20526;-63
2023/09/03 06:06:04;;;;;;;9.82;4.97;;;;;;;;;;5107343;28;20403;-63
2023/09/03 06:08:31;;;;;;;7.75;5.15;;;;;;;;;;5110691;28;20044;-64
2023/09/03 06:10:58;;;;;;;8.27;4.85;;;;;;;;;;5109533;28;20044;-63
2023/09/03 06:13:27;;;;;;;6.53;4.60;;;;;;;;;;5107543;28;20047;-63
2023/09/03 06:15:54;;;;;;;5.15;4.30;;;;;;;;;;5110157;28;20043;-63
2023/09/03 06:18:21;;;;;;;7.47;4.70;;;;;;;;;;5108797;28;20418;-63
2023/09/03 06:20:50;;;;;;;9.43;5.50;;;;;;;;;;5109705;28;20050;-63
2023/09/03 06:23:18;;;;;;;8.75;5.07;;;;;;;;;;5110457;28;20055;-63
2023/09/03 06:25:46;;;;;;;9.57;5.63;;;;;;;;;;5109450;28;20048;-63
2023/09/03 06:28:13;;;;;;;7.93;5.53;;;;;;;;;;5109783;28;20046;-63
2023/09/03 06:30:41;;;;;;;8.30;5.97;;;;;;;;;;5110369;28;20043;-63
2023/09/03 06:33:08;;;;;;;7.55;5.60;;;;;;;;;;5108650;28;20118;-63
2023/09/03 06:35:35;;;;;;;7.53;5.53;;;;;;;;;;5107580;28;20071;-63
2023/09/03 06:38:04;;;;;;;9.00;6.13;;;;;;;;;;5110560;28;20480;-63
2023/09/03 06:40:31;;;;;;;8.88;5.53;;;;;;;;;;5109462;28;20430;-63
2023/09/03 06:42:58;;;;;;;9.77;5.68;;;;;;;;;;5086323;28;20048;-63
2023/09/03 06:45:26;;;;;;;9.57;5.22;;;;;;;;;;5110005;28;20093;-64
2023/09/03 06:47:53;;;;;;;6.78;5.25;;;;;;;;;;5090616;28;20048;-63
2023/09/03 06:50:20;;;;;;;8.05;5.25;;;;;;;;;;5109358;28;20052;-63
2023/09/03 06:52:48;;;;;;;8.57;5.15;;;;;;;;;;5109581;28;20047;-63
2023/09/03 06:55:16;;;;;;;7.63;5.22;;;;;;;;;;5110798;28;20483;-63
2023/09/03 06:57:44;;;;;;;6.78;5.05;;;;;;;;;;5111400;28;20048;-63
2023/09/03 07:00:11;;;;;;;6.75;5.30;;;;;;;;;;5114751;28;20047;-63
2023/09/03 07:02:39;;;;;;;9.80;5.18;;;;;;;;;;5114640;28;20047;-62
2023/09/03 07:05:06;;;;;;;7.75;5.35;;;;;;;;;;5113092;28;20051;-62
2023/09/03 07:07:35;;;;;;;7.05;5.32;;;;;;;;;;5114006;28;20051;-63
2023/09/03 07:10:03;;;;;;;6.85;5.00;;;;;;;;;;5110275;28;20052;-63
2023/09/03 07:12:31;;;;;;;9.13;4.82;;;;;;;;;;5109540;28;20050;-63
2023/09/03 07:14:58;;;;;;;7.72;4.80;;;;;;;;;;5114796;28;20051;-63
2023/09/03 07:17:26;;;;;;;5.95;4.65;;;;;;;;;;5093651;28;20047;-63
2023/09/03 07:19:55;;;;;;;7.78;5.00;;;;;;;;;;5113628;28;20490;-63
2023/09/03 07:22:22;;;;;;;5.43;4.13;;;;;;;;;;5114128;28;20444;-63
2023/09/03 07:24:52;;;;;;;6.85;4.53;;;;;;;;;;5113583;28;20482;-63
2023/09/03 07:27:19;;;;;;;7.57;4.38;;;;;;;;;;5114377;28;20120;-63
2023/09/03 07:29:52;;;;;;;8.63;5.03;;;;;;;;;;5112496;27;20058;-64
2023/09/03 07:32:19;;;;;;;8.35;5.13;;;;;;;;;;5113559;28;20055;-65
2023/09/03 07:34:46;;;;;;;7.43;4.47;;;;;;;;;;5113911;28;20479;-64
2023/09/03 07:37:14;;;;;;;6.90;4.53;;;;;;;;;;5114171;28;20048;-64
2023/09/03 07:39:41;;;;;;;6.35;4.85;;;;;;;;;;5113618;28;20051;-64
2023/09/03 07:42:09;;;;;;;6.60;4.63;;;;;;;;;;5113315;28;20047;-64
2023/09/03 07:44:36;;;;;;;7.30;4.95;;;;;;;;;;5113131;28;20047;-63
2023/09/03 07:47:05;;;;;;;8.05;4.65;;;;;;;;;;5112799;28;20425;-63
2023/09/03 07:49:32;;;;;;;7.63;4.53;;;;;;;;;;5112129;28;20406;-63
2023/09/03 07:51:59;;;;;;;6.07;4.55;;;;;;;;;;5111254;28;20051;-63
2023/09/03 07:54:26;;;;;;;5.65;4.45;;;;;;;;;;5112664;28;20044;-63
2023/09/03 07:56:55;;;;;;;6.50;4.82;;;;;;;;;;5110436;28;20456;-63
2023/09/03 07:59:22;;;;;;;8.00;5.38;;;;;;;;;;5112000;28;20371;-63
2023/09/03 08:01:49;;;;;;;9.20;4.68;;;;;;;;;;5112360;28;20044;-64
2023/09/03 08:04:18;;;;;;;6.35;4.60;;;;;;;;;;5092844;28;20062;-63
2023/09/03 08:06:45;;;;;;;6.25;4.45;;;;;;;;;;5111460;28;20047;-63
2023/09/03 08:09:13;;;;;;;5.75;4.28;;;;;;;;;;5092800;28;20044;-63
2023/09/03 08:11:40;;;;;;;6.00;4.38;;;;;;;;;;5112878;28;20509;-63
2023/09/03 08:14:07;;;;;;;8.15;4.50;;;;;;;;;;5111169;28;20047;-64
2023/09/03 08:16:34;;;;;;;7.35;4.32;;;;;;;;;;5111848;28;20047;-64
2023/09/03 08:19:02;;;;;;;7.53;3.92;;;;;;;;;;5110688;28;20051;-64
2023/09/03 08:21:30;;;;;;;8.43;4.10;;;;;;;;;;5111353;28;20044;-64
2023/09/03 08:23:58;;;;;;;8.45;4.38;;;;;;;;;;5111832;28;20049;-63
2023/09/03 08:26:25;;;;;;;6.25;4.43;;;;;;;;;;5111061;28;20055;-64
2023/09/03 08:28:52;;;;;;;5.47;3.97;;;;;;;;;;5111880;28;20047;-63
2023/09/03 08:31:19;;;;;;;7.35;4.32;;;;;;;;;;5110885;28;20453;-64
2023/09/03 08:33:53;;;;;;;5.70;4.13;;;;;;;;;;5111704;28;20044;-63
2023/09/03 08:36:21;;;;;;;6.65;3.90;;;;;;;;;;5114391;27;20457;-63
2023/09/03 08:38:50;;;;;;;6.25;3.58;;;;;;;;;;5094100;28;20040;-63
2023/09/03 08:41:19;;;;;;;5.10;3.67;;;;;;;;;;5111398;28;20051;-64
2023/09/03 08:43:49;;;;;;;6.38;3.45;;;;;;;;;;5110878;28;20372;-64
2023/09/03 08:46:19;;;;;;;5.78;3.30;;;;;;;;;;5111792;28;20096;-64
2023/09/03 08:48:48;;;;;;;4.68;3.10;;;;;;;;;;5109378;28;20036;-64
2023/09/03 08:51:16;;;;;;;4.78;3.10;;;;;;;;;;5111255;28;20044;-64
2023/09/03 08:53:44;;;;;;;4.28;2.70;;;;;;;;;;5110381;28;20479;-64
2023/09/03 08:56:13;;;;;;;4.35;2.80;;;;;;;;;;5109862;28;20063;-64
2023/09/03 08:58:40;;;;;;;3.03;2.45;;;;;;;;;;5093299;28;20118;-63
2023/09/03 09:01:09;;;;;;;5.95;2.67;;;;;;;;;;5110771;28;20052;-65
2023/09/03 09:03:36;;;;;;;4.25;2.65;;;;;;;;;;5111596;28;20047;-65
2023/09/03 09:06:05;;;;;;;5.95;2.65;;;;;;;;;;5110059;28;20131;-64
2023/09/03 09:08:32;;;;;;;4.18;2.40;;;;;;;;;;5093486;28;20539;-64
2023/09/03 09:11:02;;;;;;;2.72;2.05;;;;;;;;;;5110690;28;20055;-64
2023/09/03 09:13:33;;;;;;;3.08;2.00;;;;;;;;;;5111585;28;20506;-64
2023/09/03 09:16:00;;;;;;;3.67;1.92;;;;;;;;;;5110787;28;20051;-64
2023/09/03 09:18:27;;;;;;;3.95;2.08;;;;;;;;;;5111012;28;20058;-64
2023/09/03 09:20:56;;;;;;;3.17;1.80;;;;;;;;;;5108185;28;20063;-64
2023/09/03 09:23:24;;;;;;;3.97;2.08;;;;;;;;;;5110072;28;20035;-64
2023/09/03 09:25:51;;;;;;;3.78;1.75;;;;;;;;;;5106942;28;20059;-64
2023/09/03 09:28:19;;;;;;;2.42;1.52;;;;;;;;;;5110478;28;20043;-63
2023/09/03 09:30:55;;;;;;;4.18;1.55;;;;;;;;;;5109511;28;20096;-64
2023/09/03 09:33:22;;;;;;;2.60;1.38;;;;;;;;;;5104339;28;20051;-64
2023/09/03 09:35:50;;;;;;;2.83;1.35;;;;;;;;;;5109118;28;20215;-64
2023/09/03 09:38:18;;;;;;;2.50;1.23;;;;;;;;;;5092543;28;20043;-65
2023/09/03 09:40:45;;;;;;;2.90;1.40;;;;;;;;;;5107444;28;20146;-64
2023/09/03 09:43:12;;;;;;;2.28;1.52;;;;;;;;;;5108432;28;20052;-64
2023/09/03 09:45:49;;;;;;;2.60;1.55;;;;;;;;;;5091928;28;20050;-63
2023/09/03 09:48:18;;;;;;;2.17;1.23;;;;;;;;;;5106693;28;20052;-64
2023/09/03 09:50:45;;;;;;;3.85;1.25;;;;;;;;;;5107738;28;20047;-65
2023/09/03 09:53:23;;;;;;;4.20;1.50;;;;;;;;;;5109055;28;20039;-64
2023/09/03 09:55:58;;;;;;;2.45;1.60;;;;;;;;;;5107061;28;20059;-64
2023/09/03 09:58:35;;;;;;;1.75;1.38;;;;;;;;;;5110628;28;20096;-65
2023/09/03 10:01:03;;;;;;;2.97;1.02;;;;;;;;;;5106613;28;20047;-64
2023/09/03 10:03:41;;;;;;;4.78;1.20;;;;;;;;;;5110875;28;20055;-65
2023/09/03 10:06:09;;;;;;;2.75;1.20;;;;;;;;;;5108142;28;20482;-65
2023/09/03 10:08:36;;;;;;;1.70;1.30;;;;;;;;;;5108428;28;20047;-64
2023/09/03 10:11:03;;;;;;;6.53;1.65;;;;;;;;;;5107922;28;20371;-64
2023/09/03 10:13:31;;;;;;;2.47;1.40;;;;;;;;;;5109118;28;20043;-64
2023/09/03 10:16:02;;;;;;;3.67;1.30;;;;;;;;;;5108764;28;20402;-65
2023/09/03 10:18:29;;;;;;;2.25;1.45;;;;;;;;;;5109844;28;20510;-64
2023/09/03 10:20:58;;;;;;;2.65;1.15;;;;;;;;;;5109075;28;20048;-65
2023/09/03 10:23:27;;;;;;;1.95;1.10;;;;;;;;;;5108974;28;20524;-64
2023/09/03 10:25:54;;;;;;;1.38;0.90;;;;;;;;;;5090003;28;20040;-65
2023/09/03 10:28:23;;;;;;;2.15;0.90;;;;;;;;;;5107930;28;20482;-65
2023/09/03 10:30:52;;;;;;;1.95;1.10;;;;;;;;;;5108815;28;20391;-65
2023/09/03 10:33:19;;;;;;;1.92;1.00;;;;;;;;;;5107214;28;20048;-65
2023/09/03 10:36:01;;;;;;;1.92;0.95;;;;;;;;;;5110234;27;20040;-64
2023/09/03 10:38:33;;;;;;;1.70;0.90;;;;;;;;;;5107785;28;20043;-64
2023/09/03 10:41:15;;;;;;;2.42;0.85;;;;;;;;;;5110107;28;20054;-65
2023/09/03 10:43:42;;;;;;;1.80;0.80;;;;;;;;;;5108044;28;20039;-65
2023/09/03 10:46:09;;;;;;;2.47;0.90;;;;;;;;;;5092378;28;20422;-64
2023/09/03 10:48:37;;;;;;;5.25;0.82;;;;;;;;;;5108366;28;20097;-64
2023/09/03 10:51:04;;;;;;;1.00;0.80;;;;;;;;;;5110050;28;20047;-64
2023/09/03 10:53:39;;;;;;;3.30;1.10;;;;;;;;;;5109315;28;20494;-64
2023/09/03 10:56:08;;;;;;;1.88;1.00;;;;;;;;;;5108460;28;20056;-64
2023/09/03 10:58:36;;;;;;;2.55;0.82;;;;;;;;;;5109371;28;20039;-64
2023/09/03 11:01:19;;;;;;;1.40;0.80;;;;;;;;;;5109539;28;20043;-64
2023/09/03 11:03:47;;;;;;;;;;;;;;;;;;5110936;28;20048;-64
2023/09/03 11:06:18;;;;;;;2.47;0.82;;;;;;;;;;5109499;28;19920;-64
2023/09/03 11:08:47;;;;;;;4.38;0.90;;;;;;;;;;5108224;28;20084;-64
2023/09/03 11:11:19;;;;;;;1.60;0.90;;;;;;;;;;5109836;28;20410;-64
2023/09/03 11:13:50;;;;;;;2.45;1.42;;;;;;;;;;5109278;28;20540;-64
2023/09/03 11:16:18;;;;;;;4.07;0.93;;;;;;;;;;5109577;28;20104;-64
2023/09/03 11:18:49;;;;;;;1.67;0.90;;;;;;;;;;5109635;28;20733;-64
2023/09/03 11:21:16;;;;;;;3.28;0.88;;;;;;;;;;5109877;28;20518;-64
2023/09/03 11:26:39;;;;;;;2.00;0.90;;;;;;;;;;5136615;27;19919;-63
2023/09/03 11:29:18;;;;;;;3.40;0.90;;;;;;;;;;5130645;27;20151;-63
2023/09/03 11:31:47;;;;;;;2.30;0.85;;;;;;;;;;5112242;27;20054;-64
2023/09/03 11:34:18;;;;;;;1.23;0.90;;;;;;;;;;5103100;28;20098;-64
2023/09/03 11:36:45;;;;;;;1.63;0.80;;;;;;;;;;5126512;27;20039;-63
2023/09/03 11:39:14;;;;;;;1.33;0.80;;;;;;;;;;5123456;27;20043;-63
2023/09/03 11:41:44;;;;;;;2.72;0.80;;;;;;;;;;5122282;27;20055;-63
2023/09/03 11:44:14;;;;;;;3.22;0.80;;;;;;;;;;5128399;27;20054;-63
2023/09/03 11:46:42;;;;;;;1.33;0.70;;;;;;;;;;5120410;27;20043;-63
2023/09/03 11:49:09;;;;;;;1.15;0.70;;;;;;;;;;5126987;27;20141;-63
2023/09/03 11:51:38;;;;;;;1.17;0.95;;;;;;;;;;5116764;27;20055;-64
2023/09/03 11:54:05;;;;;;;2.15;0.80;;;;;;;;;;5125895;27;20052;-64
2023/09/03 11:56:33;;;;;;;0.73;0.73;;;;;;;;;;5126146;27;20058;-64
2023/09/03 11:59:04;;;;;;;1.48;1.05;;;;;;;;;;5106181;28;20052;-64
2023/09/03 12:01:31;;;;;;;2.53;0.98;;;;;;;;;;5126158;28;20500;-64
2023/09/03 12:03:59;;;;;;;2.33;1.00;;;;;;;;;;5127333;28;20051;-64
2023/09/03 12:06:26;;;;;;;3.55;1.00;;;;;;;;;;5119233;28;20051;-64
2023/09/03 12:08:53;;;;;;;1.95;0.93;;;;;;;;;;5116176;27;20059;-64
2023/09/03 12:11:28;;;;;;;0.98;0.88;;;;;;;;;;5117392;27;20356;-64
2023/09/03 12:13:56;;;;;;;2.35;1.08;;;;;;;;;;5098236;28;20073;-64
2023/09/03 12:16:25;;;;;;;2.50;0.95;;;;;;;;;;5123055;27;20141;-64
2023/09/03 12:18:56;;;;;;;4.03;1.00;;;;;;;;;;5123732;27;20063;-65
2023/09/03 12:21:32;;;;;;;0.88;0.75;;;;;;;;;;5124608;27;20044;-64
2023/09/03 12:23:59;;;;;;;0.98;0.80;;;;;;;;;;5122489;27;20583;-64
2023/09/03 12:26:26;;;;;;;1.10;0.90;;;;;;;;;;5114864;28;20403;-64
2023/09/03 12:28:54;;;;;;;0.90;0.80;;;;;;;;;;5114426;27;20044;-64
2023/09/03 12:31:22;;;;;;;1.00;0.80;;;;;;;;;;5131392;27;20047;-64
2023/09/03 12:33:51;;;;;;;1.35;0.90;;;;;;;;;;5113690;27;20055;-64
2023/09/03 12:36:19;;;;;;;1.00;0.68;;;;;;;;;;5110517;28;20048;-64
2023/09/03 12:38:49;;;;;;;0.90;0.70;;;;;;;;;;5106004;28;20070;-63
2023/09/03 12:41:16;;;;;;;1.77;0.80;;;;;;;;;;5110455;28;20065;-64
2023/09/03 12:43:43;;;;;;;1.63;0.93;;;;;;;;;;5108768;27;20052;-64
2023/09/03 12:46:11;;;;;;;1.48;0.93;;;;;;;;;;5103220;28;20134;-64
2023/09/03 12:48:38;;;;;;;0.98;0.88;;;;;;;;;;5110433;27;20530;-64
2023/09/03 12:51:07;;;;;;;2.30;0.80;;;;;;;;;;5109615;27;20051;-64
2023/09/03 12:53:34;;;;;;;1.40;0.70;;;;;;;;;;5082190;28;20059;-64
2023/09/03 12:56:01;;;;;;;0.80;0.70;;;;;;;;;;5107951;28;20044;-64
2023/09/03 12:58:28;;;;;;;0.90;0.80;;;;;;;;;;5105203;28;20236;-63
2023/09/03 13:00:56;;;;;;;1.00;0.70;;;;;;;;;;5114012;27;20384;-64
2023/09/03 13:03:23;;;;;;;2.10;0.90;;;;;;;;;;5098413;28;20070;-64
2023/09/03 13:05:50;;;;;;;1.45;0.90;;;;;;;;;;5104052;27;20490;-64
2023/09/03 13:08:19;;;;;;;0.85;0.80;;;;;;;;;;5105218;27;20040;-64
2023/09/03 13:10:46;;;;;;;0.80;0.80;;;;;;;;;;5110672;27;20047;-63
2023/09/03 13:13:13;;;;;;;1.20;0.93;;;;;;;;;;5114202;27;20394;-63
2023/09/03 13:15:40;;;;;;;1.17;0.90;;;;;;;;;;5107950;27;20054;-63
2023/09/03 13:18:08;;;;;;;0.80;0.77;;;;;;;;;;5103833;28;20071;-63
2023/09/03 13:20:36;;;;;;;1.35;0.80;;;;;;;;;;5107425;27;20066;-63
2023/09/03 13:23:03;;;;;;;1.38;0.80;;;;;;;;;;5110854;27;20514;-64
2023/09/03 13:25:32;;;;;;;1.20;0.80;;;;;;;;;;5108746;28;20420;-63
2023/09/03 13:27:59;;;;;;;1.13;0.75;;;;;;;;;;5108939;28;20083;-64
2023/09/03 13:30:26;;;;;;;1.08;0.90;;;;;;;;;;5101158;28;20048;-63
2023/09/03 13:32:54;;;;;;;1.05;0.82;;;;;;;;;;5110721;28;20046;-64
2023/09/03 13:35:22;;;;;;;2.13;0.90;;;;;;;;;;5102109;28;20554;-64
2023/09/03 13:37:49;;;;;;;4.30;0.85;;;;;;;;;;5101435;28;20055;-64
2023/09/03 13:40:16;;;;;;;1.20;0.70;;;;;;;;;;5105195;28;20123;-64
2023/09/03 13:42:45;;;;;;;1.08;0.80;;;;;;;;;;5107472;27;20051;-63
2023/09/03 13:45:13;;;;;;;1.10;0.80;;;;;;;;;;5102692;28;20483;-64
2023/09/03 13:47:40;;;;;;;1.15;0.70;;;;;;;;;;5103697;28;20044;-64
2023/09/03 13:50:08;;;;;;;0.68;0.68;;;;;;;;;;5081547;28;20052;-64
2023/09/03 13:52:35;;;;;;;1.95;0.90;;;;;;;;;;5101303;28;20051;-64
2023/09/03 13:55:03;;;;;;;0.68;0.68;;;;;;;;;;5106515;27;20598;-63
2023/09/03 13:57:30;;;;;;;1.00;0.90;;;;;;;;;;5108191;27;20168;-63
2023/09/03 13:59:59;;;;;;;1.40;0.80;;;;;;;;;;5103994;28;20487;-63
2023/09/03 14:02:28;;;;;;;1.23;0.95;;;;;;;;;;5100376;27;20047;-64
2023/09/03 14:04:57;;;;;;;0.70;0.70;;;;;;;;;;5110711;27;20070;-64
2023/09/03 14:07:25;;;;;;;1.23;0.90;;;;;;;;;;5106612;27;20553;-64
2023/09/03 14:09:53;;;;;;;0.98;0.85;;;;;;;;;;5102496;27;20505;-64
2023/09/03 14:12:20;;;;;;;1.65;0.85;;;;;;;;;;5099982;27;20047;-63
2023/09/03 14:14:48;;;;;;;1.85;0.95;;;;;;;;;;5096672;28;20051;-64
2023/09/03 14:17:16;;;;;;;1.65;0.90;;;;;;;;;;5109096;28;20513;-64
2023/09/03 14:19:45;;;;;;;1.00;0.90;;;;;;;;;;5105320;28;20066;-64
2023/09/03 14:22:12;;;;;;;2.50;0.82;;;;;;;;;;5105237;27;20040;-64
2023/09/03 14:24:39;;;;;;;1.27;1.00;;;;;;;;;;5112252;27;20050;-64
2023/09/03 14:27:07;;;;;;;0.90;0.80;;;;;;;;;;5102357;28;20050;-64
2023/09/03 14:29:34;;;;;;;2.00;0.73;;;;;;;;;;5099872;27;20051;-63
2023/09/03 14:32:01;;;;;;;1.35;0.95;;;;;;;;;;5099063;28;20418;-63
2023/09/03 14:34:30;;;;;;;1.85;0.98;;;;;;;;;;5102509;27;20490;-63
2023/09/03 14:36:58;;;;;;;0.73;0.60;;;;;;;;;;5101445;28;20054;-64
2023/09/03 14:39:25;;;;;;;1.58;1.10;;;;;;;;;;5108070;27;20048;-64
2023/09/03 14:41:52;;;;;;;1.90;1.00;;;;;;;;;;5100000;27;20055;-64
2023/09/03 14:44:20;;;;;;;1.17;0.90;;;;;;;;;;5103640;28;20049;-63
2023/09/03 14:46:47;;;;;;;1.55;0.95;;;;;;;;;;5106671;28;20462;-64
2023/09/03 14:49:19;;;;;;;1.40;1.00;;;;;;;;;;5103699;28;20044;-64
2023/09/03 14:51:48;;;;;;;1.17;0.90;;;;;;;;;;5107011;28;20052;-64